JBU1281 KJFK-KBOS
Flight info
| Callsign | JBU1281 |
|---|---|
| Flight time | 0h 40m |
| Altitude | 19000 |
| Route | KJFK 22R DCT MERIT ROBUC3 KBOS 22L |
| Aircraft | A320/M-SDE3FGHIRWY/LB1 |
Departure
| Time | 2026-05-06 13:31 |
|---|---|
| Airport | John F. Kennedy International Airport (KJFK) |
Arrival
| Time | 2026-05-06 14:12 |
|---|---|
| Airport | Boston Logan International Airport (KBOS) |
| Time | Latitude | Longitude | Altitude | Speed | Heading |
|---|---|---|---|---|---|
| 2026-05-06 12:51 | 40.64541 | -73.77289 | 20 ft | 0 kts | 1° |
| 2026-05-06 13:20 | 40.64529 | -73.77289 | 20 ft | 2 kts | 1° |
| 2026-05-06 13:20 | 40.64513 | -73.77290 | 22 ft | 2 kts | 0° |
| 2026-05-06 13:20 | 40.64496 | -73.77290 | 22 ft | 2 kts | 1° |
| 2026-05-06 13:21 | 40.64479 | -73.77290 | 22 ft | 2 kts | 29° |
| 2026-05-06 13:21 | 40.64475 | -73.77304 | 24 ft | 1 kts | 94° |
| 2026-05-06 13:21 | 40.64476 | -73.77306 | 24 ft | 0 kts | 88° |
| 2026-05-06 13:22 | 40.64476 | -73.77301 | 24 ft | 1 kts | 88° |
| 2026-05-06 13:22 | 40.64476 | -73.77279 | 23 ft | 5 kts | 90° |
| 2026-05-06 13:22 | 40.64466 | -73.77222 | 21 ft | 8 kts | 114° |
| 2026-05-06 13:23 | 40.64442 | -73.77148 | 20 ft | 10 kts | 107° |
| 2026-05-06 13:23 | 40.64423 | -73.77050 | 20 ft | 12 kts | 104° |
| 2026-05-06 13:23 | 40.64398 | -73.76933 | 21 ft | 14 kts | 111° |
| 2026-05-06 13:23 | 40.64357 | -73.76836 | 20 ft | 11 kts | 121° |
| 2026-05-06 13:24 | 40.64320 | -73.76754 | 20 ft | 7 kts | 121° |
| 2026-05-06 13:24 | 40.64314 | -73.76742 | 20 ft | 1 kts | 121° |
| 2026-05-06 13:24 | 40.64300 | -73.76711 | 20 ft | 9 kts | 121° |
| 2026-05-06 13:24 | 40.64271 | -73.76644 | 20 ft | 7 kts | 114° |
| 2026-05-06 13:25 | 40.64266 | -73.76574 | 20 ft | 9 kts | 90° |
| 2026-05-06 13:25 | 40.64265 | -73.76489 | 20 ft | 10 kts | 87° |
| 2026-05-06 13:25 | 40.64271 | -73.76387 | 20 ft | 12 kts | 86° |
| 2026-05-06 13:25 | 40.64276 | -73.76268 | 20 ft | 14 kts | 86° |
| 2026-05-06 13:26 | 40.64280 | -73.76133 | 21 ft | 15 kts | 89° |
| 2026-05-06 13:26 | 40.64282 | -73.76001 | 22 ft | 8 kts | 88° |
| 2026-05-06 13:26 | 40.64278 | -73.75924 | 22 ft | 9 kts | 106° |
| 2026-05-06 13:26 | 40.64256 | -73.75844 | 22 ft | 9 kts | 61° |
| 2026-05-06 13:27 | 40.64324 | -73.75819 | 22 ft | 11 kts | 9° |
| 2026-05-06 13:27 | 40.64391 | -73.75780 | 24 ft | 8 kts | 84° |
| 2026-05-06 13:27 | 40.64375 | -73.75769 | 22 ft | 1 kts | 187° |
| 2026-05-06 13:27 | 40.64339 | -73.75775 | 22 ft | 7 kts | 174° |
| 2026-05-06 13:28 | 40.64322 | -73.75768 | 22 ft | 0 kts | 156° |
| 2026-05-06 13:28 | 40.64320 | -73.75767 | 22 ft | 1 kts | 160° |
| 2026-05-06 13:28 | 40.64311 | -73.75795 | 22 ft | 8 kts | 255° |
| 2026-05-06 13:29 | 40.64323 | -73.75886 | 23 ft | 16 kts | 263° |
| 2026-05-06 13:29 | 40.64287 | -73.76147 | 24 ft | 34 kts | 258° |
| 2026-05-06 13:29 | 40.64268 | -73.76405 | 20 ft | 20 kts | 266° |
| 2026-05-06 13:29 | 40.64264 | -73.76600 | 20 ft | 22 kts | 274° |
| 2026-05-06 13:30 | 40.64307 | -73.76731 | 20 ft | 16 kts | 301° |
| 2026-05-06 13:30 | 40.64347 | -73.76818 | 19 ft | 7 kts | 301° |
| 2026-05-06 13:30 | 40.64348 | -73.76877 | 20 ft | 7 kts | 240° |
| 2026-05-06 13:30 | 40.64294 | -73.76925 | 21 ft | 21 kts | 210° |
| 2026-05-06 13:31 | 40.63964 | -73.77178 | 21 ft | 85 kts | 211° |
| 2026-05-06 13:31 | 40.63317 | -73.77686 | 24 ft | 131 kts | 211° |
| 2026-05-06 13:31 | 40.62451 | -73.78414 | 298 ft | 147 kts | 215° |
| 2026-05-06 13:31 | 40.61592 | -73.79148 | 948 ft | 147 kts | 211° |
| 2026-05-06 13:32 | 40.60713 | -73.79848 | 1647 ft | 147 kts | 214° |
| 2026-05-06 13:32 | 40.59747 | -73.80321 | 2322 ft | 156 kts | 192° |
| 2026-05-06 13:32 | 40.58644 | -73.79920 | 3023 ft | 181 kts | 155° |
| 2026-05-06 13:32 | 40.57812 | -73.78566 | 3694 ft | 197 kts | 131° |
| 2026-05-06 13:33 | 40.57258 | -73.76935 | 4343 ft | 205 kts | 108° |
| 2026-05-06 13:33 | 40.57532 | -73.75065 | 5031 ft | 214 kts | 58° |
| 2026-05-06 13:33 | 40.58569 | -73.73653 | 5482 ft | 223 kts | 41° |
| 2026-05-06 13:33 | 40.59808 | -73.72256 | 5699 ft | 246 kts | 41° |
| 2026-05-06 13:34 | 40.61170 | -73.70719 | 5931 ft | 267 kts | 41° |
| 2026-05-06 13:34 | 40.62635 | -73.69066 | 6241 ft | 289 kts | 41° |
| 2026-05-06 13:34 | 40.64204 | -73.67256 | 6658 ft | 309 kts | 45° |
| 2026-05-06 13:34 | 40.65601 | -73.65258 | 7328 ft | 316 kts | 52° |
| 2026-05-06 13:35 | 40.66965 | -73.62970 | 8111 ft | 321 kts | 55° |
| 2026-05-06 13:35 | 40.68292 | -73.60579 | 8886 ft | 325 kts | 56° |
| 2026-05-06 13:35 | 40.69629 | -73.58136 | 9675 ft | 330 kts | 56° |
| 2026-05-06 13:35 | 40.70992 | -73.55677 | 10374 ft | 335 kts | 55° |
| 2026-05-06 13:36 | 40.72395 | -73.53199 | 11083 ft | 339 kts | 54° |
| 2026-05-06 13:36 | 40.73828 | -73.50710 | 11777 ft | 343 kts | 54° |
| 2026-05-06 13:36 | 40.75290 | -73.48197 | 12474 ft | 347 kts | 53° |
| 2026-05-06 13:36 | 40.76773 | -73.45658 | 13186 ft | 351 kts | 53° |
| 2026-05-06 13:37 | 40.78268 | -73.43101 | 13852 ft | 355 kts | 53° |
| 2026-05-06 13:37 | 40.79815 | -73.40446 | 14001 ft | 377 kts | 53° |
| 2026-05-06 13:37 | 40.81454 | -73.37627 | 14129 ft | 398 kts | 53° |
| 2026-05-06 13:37 | 40.83182 | -73.34648 | 14271 ft | 416 kts | 53° |
| 2026-05-06 13:38 | 40.84961 | -73.31579 | 14709 ft | 425 kts | 53° |
| 2026-05-06 13:38 | 40.86768 | -73.28462 | 15262 ft | 429 kts | 53° |
| 2026-05-06 13:38 | 40.88588 | -73.25319 | 15820 ft | 432 kts | 53° |
| 2026-05-06 13:38 | 40.90416 | -73.22160 | 16374 ft | 435 kts | 53° |
| 2026-05-06 13:39 | 40.92260 | -73.18970 | 16933 ft | 438 kts | 52° |
| 2026-05-06 13:39 | 40.94119 | -73.15747 | 17503 ft | 441 kts | 52° |
| 2026-05-06 13:39 | 40.95982 | -73.12514 | 18089 ft | 445 kts | 52° |
| 2026-05-06 13:39 | 40.97863 | -73.09242 | 18602 ft | 448 kts | 52° |
| 2026-05-06 13:40 | 40.99753 | -73.05950 | 19115 ft | 451 kts | 52° |
| 2026-05-06 13:40 | 41.01659 | -73.02632 | 19634 ft | 454 kts | 52° |
| 2026-05-06 13:40 | 41.03582 | -72.99278 | 20151 ft | 457 kts | 52° |
| 2026-05-06 13:40 | 41.05508 | -72.95921 | 20639 ft | 460 kts | 51° |
| 2026-05-06 13:41 | 41.07454 | -72.92528 | 20905 ft | 465 kts | 51° |
| 2026-05-06 13:41 | 41.09440 | -72.89063 | 20935 ft | 479 kts | 51° |
| 2026-05-06 13:41 | 41.11475 | -72.85507 | 20943 ft | 489 kts | 52° |
| 2026-05-06 13:41 | 41.13542 | -72.81890 | 20934 ft | 493 kts | 52° |
| 2026-05-06 13:42 | 41.15605 | -72.78269 | 20931 ft | 493 kts | 52° |
| 2026-05-06 13:42 | 41.17677 | -72.74634 | 20938 ft | 493 kts | 52° |
| 2026-05-06 13:42 | 41.19746 | -72.71000 | 20935 ft | 493 kts | 52° |
| 2026-05-06 13:42 | 41.21810 | -72.67362 | 20940 ft | 493 kts | 52° |
| 2026-05-06 13:43 | 41.23863 | -72.63733 | 20948 ft | 493 kts | 52° |
| 2026-05-06 13:43 | 41.25919 | -72.60094 | 20943 ft | 492 kts | 52° |
| 2026-05-06 13:43 | 41.27982 | -72.56448 | 20945 ft | 492 kts | 52° |
| 2026-05-06 13:43 | 41.30038 | -72.52813 | 20940 ft | 492 kts | 52° |
| 2026-05-06 13:44 | 41.32090 | -72.49175 | 20938 ft | 492 kts | 52° |
| 2026-05-06 13:44 | 41.34143 | -72.45527 | 20941 ft | 492 kts | 52° |
| 2026-05-06 13:44 | 41.36187 | -72.41894 | 20937 ft | 492 kts | 52° |
| 2026-05-06 13:44 | 41.38241 | -72.38242 | 20934 ft | 492 kts | 52° |
| 2026-05-06 13:45 | 41.40291 | -72.34595 | 20929 ft | 492 kts | 52° |
| 2026-05-06 13:45 | 41.44409 | -72.27255 | 20926 ft | 486 kts | 52° |
| 2026-05-06 13:45 | 41.46378 | -72.23733 | 20960 ft | 476 kts | 52° |
| 2026-05-06 13:46 | 41.47664 | -72.21310 | 20960 ft | 474 kts | 57° |
| 2026-05-06 13:46 | 41.49236 | -72.17456 | 20813 ft | 473 kts | 64° |
| 2026-05-06 13:46 | 41.50678 | -72.13523 | 20565 ft | 471 kts | 64° |
| 2026-05-06 13:46 | 41.52103 | -72.09611 | 20323 ft | 469 kts | 64° |
| 2026-05-06 13:47 | 41.53523 | -72.05701 | 20081 ft | 467 kts | 64° |
| 2026-05-06 13:47 | 41.54936 | -72.01804 | 19832 ft | 465 kts | 64° |
| 2026-05-06 13:47 | 41.56316 | -71.97896 | 19572 ft | 463 kts | 66° |
| 2026-05-06 13:47 | 41.57586 | -71.93955 | 19314 ft | 460 kts | 68° |
| 2026-05-06 13:48 | 41.58768 | -71.90008 | 18800 ft | 456 kts | 70° |
| 2026-05-06 13:48 | 41.59890 | -71.86101 | 17920 ft | 447 kts | 70° |
| 2026-05-06 13:48 | 41.60985 | -71.82236 | 16857 ft | 442 kts | 71° |
| 2026-05-06 13:48 | 41.62064 | -71.78434 | 16230 ft | 436 kts | 71° |
| 2026-05-06 13:49 | 41.63151 | -71.74648 | 15961 ft | 428 kts | 71° |
| 2026-05-06 13:49 | 41.64204 | -71.71046 | 15722 ft | 403 kts | 71° |
| 2026-05-06 13:49 | 41.65205 | -71.67651 | 15476 ft | 383 kts | 71° |
| 2026-05-06 13:49 | 41.66166 | -71.64390 | 15240 ft | 375 kts | 71° |
| 2026-05-06 13:50 | 41.67118 | -71.61151 | 14999 ft | 373 kts | 71° |
| 2026-05-06 13:50 | 41.68062 | -71.57926 | 14755 ft | 371 kts | 71° |
| 2026-05-06 13:50 | 41.69000 | -71.54717 | 14519 ft | 370 kts | 71° |
| 2026-05-06 13:50 | 41.69933 | -71.51519 | 14291 ft | 368 kts | 72° |
| 2026-05-06 13:51 | 41.70876 | -71.48286 | 13127 ft | 381 kts | 72° |
| 2026-05-06 13:51 | 41.71857 | -71.44917 | 11912 ft | 391 kts | 72° |
| 2026-05-06 13:51 | 41.73018 | -71.41674 | 11391 ft | 381 kts | 62° |
| 2026-05-06 13:51 | 41.74336 | -71.38664 | 11178 ft | 371 kts | 63° |
| 2026-05-06 13:52 | 41.75604 | -71.35714 | 11020 ft | 361 kts | 63° |
| 2026-05-06 13:52 | 41.76837 | -71.32811 | 10999 ft | 358 kts | 64° |
| 2026-05-06 13:52 | 41.78066 | -71.29906 | 10999 ft | 358 kts | 64° |
| 2026-05-06 13:52 | 41.79293 | -71.27005 | 11006 ft | 358 kts | 64° |
| 2026-05-06 13:53 | 41.80525 | -71.24099 | 11004 ft | 358 kts | 63° |
| 2026-05-06 13:53 | 41.81739 | -71.21247 | 10999 ft | 349 kts | 63° |
| 2026-05-06 13:53 | 41.82939 | -71.18425 | 10999 ft | 348 kts | 64° |
| 2026-05-06 13:53 | 41.84133 | -71.15611 | 11003 ft | 347 kts | 64° |
| 2026-05-06 13:54 | 41.85328 | -71.12799 | 11009 ft | 347 kts | 64° |
| 2026-05-06 13:54 | 41.86529 | -71.09987 | 10880 ft | 348 kts | 63° |
| 2026-05-06 13:54 | 41.87739 | -71.07188 | 10637 ft | 346 kts | 63° |
| 2026-05-06 13:54 | 41.88947 | -71.04409 | 10406 ft | 344 kts | 63° |
| 2026-05-06 13:55 | 41.90152 | -71.01638 | 10163 ft | 344 kts | 63° |
| 2026-05-06 13:55 | 41.91353 | -70.98867 | 9935 ft | 342 kts | 63° |
| 2026-05-06 13:55 | 41.92546 | -70.96103 | 9814 ft | 342 kts | 64° |
| 2026-05-06 13:55 | 41.93731 | -70.93343 | 9684 ft | 341 kts | 64° |
| 2026-05-06 13:56 | 41.94915 | -70.90582 | 9551 ft | 340 kts | 64° |
| 2026-05-06 13:56 | 41.96099 | -70.87831 | 9409 ft | 339 kts | 64° |
| 2026-05-06 13:56 | 41.97271 | -70.85099 | 9277 ft | 338 kts | 64° |
| 2026-05-06 13:56 | 41.98440 | -70.82368 | 9147 ft | 337 kts | 64° |
| 2026-05-06 13:57 | 41.99612 | -70.79633 | 9019 ft | 337 kts | 64° |
| 2026-05-06 13:57 | 42.00795 | -70.76929 | 8887 ft | 336 kts | 59° |
| 2026-05-06 13:57 | 42.02258 | -70.74471 | 8754 ft | 337 kts | 49° |
| 2026-05-06 13:57 | 42.03827 | -70.72128 | 8625 ft | 337 kts | 49° |
| 2026-05-06 13:58 | 42.05395 | -70.69783 | 8494 ft | 336 kts | 49° |
| 2026-05-06 13:58 | 42.06951 | -70.67451 | 8373 ft | 335 kts | 49° |
| 2026-05-06 13:58 | 42.08550 | -70.65193 | 8239 ft | 333 kts | 39° |
| 2026-05-06 13:58 | 42.10532 | -70.63622 | 8120 ft | 329 kts | 16° |
| 2026-05-06 13:59 | 42.12866 | -70.63069 | 8000 ft | 351 kts | 353° |
| 2026-05-06 13:59 | 42.15363 | -70.63583 | 7882 ft | 378 kts | 342° |
| 2026-05-06 13:59 | 42.17974 | -70.64344 | 7757 ft | 395 kts | 342° |
| 2026-05-06 13:59 | 42.20706 | -70.65143 | 7632 ft | 398 kts | 342° |
| 2026-05-06 14:00 | 42.23410 | -70.65925 | 7506 ft | 398 kts | 342° |
| 2026-05-06 14:00 | 42.26124 | -70.66705 | 7375 ft | 397 kts | 342° |
| 2026-05-06 14:00 | 42.28819 | -70.67475 | 7259 ft | 396 kts | 342° |
| 2026-05-06 14:00 | 42.31512 | -70.68242 | 7142 ft | 396 kts | 342° |
| 2026-05-06 14:01 | 42.34199 | -70.69005 | 6996 ft | 389 kts | 342° |
| 2026-05-06 14:01 | 42.36783 | -70.69732 | 6881 ft | 370 kts | 342° |
| 2026-05-06 14:01 | 42.39247 | -70.70428 | 6749 ft | 354 kts | 342° |
| 2026-05-06 14:01 | 42.41617 | -70.71101 | 6629 ft | 341 kts | 342° |
| 2026-05-06 14:02 | 42.43896 | -70.71752 | 6506 ft | 329 kts | 341° |
| 2026-05-06 14:02 | 42.46090 | -70.72385 | 6387 ft | 318 kts | 341° |
| 2026-05-06 14:02 | 42.48216 | -70.73000 | 6267 ft | 308 kts | 341° |
| 2026-05-06 14:02 | 42.50293 | -70.73605 | 6141 ft | 303 kts | 341° |
| 2026-05-06 14:03 | 42.52331 | -70.74197 | 5979 ft | 297 kts | 341° |
| 2026-05-06 14:03 | 42.54364 | -70.74789 | 5521 ft | 302 kts | 341° |
| 2026-05-06 14:03 | 42.56419 | -70.75391 | 5246 ft | 298 kts | 341° |
| 2026-05-06 14:03 | 42.58409 | -70.75963 | 5179 ft | 287 kts | 341° |
| 2026-05-06 14:04 | 42.60302 | -70.76664 | 5011 ft | 274 kts | 326° |
| 2026-05-06 14:04 | 42.61791 | -70.78035 | 4948 ft | 246 kts | 304° |
| 2026-05-06 14:04 | 42.62743 | -70.79778 | 4882 ft | 217 kts | 285° |
| 2026-05-06 14:04 | 42.63222 | -70.81648 | 4768 ft | 204 kts | 271° |
| 2026-05-06 14:05 | 42.63301 | -70.83508 | 4285 ft | 192 kts | 256° |
| 2026-05-06 14:05 | 42.63009 | -70.85220 | 3965 ft | 183 kts | 243° |
| 2026-05-06 14:05 | 42.62398 | -70.86724 | 3941 ft | 182 kts | 231° |
| 2026-05-06 14:05 | 42.61520 | -70.87966 | 3943 ft | 183 kts | 218° |
| 2026-05-06 14:06 | 42.60436 | -70.88855 | 3940 ft | 183 kts | 206° |
| 2026-05-06 14:06 | 42.59234 | -70.89452 | 3935 ft | 184 kts | 203° |
| 2026-05-06 14:06 | 42.58028 | -70.90041 | 3938 ft | 184 kts | 204° |
| 2026-05-06 14:06 | 42.56820 | -70.90632 | 3909 ft | 185 kts | 204° |
| 2026-05-06 14:07 | 42.55613 | -70.91220 | 3746 ft | 183 kts | 204° |
| 2026-05-06 14:07 | 42.54420 | -70.91801 | 3526 ft | 182 kts | 204° |
| 2026-05-06 14:07 | 42.53230 | -70.92381 | 3300 ft | 182 kts | 204° |
| 2026-05-06 14:07 | 42.52041 | -70.92959 | 3065 ft | 181 kts | 204° |
| 2026-05-06 14:08 | 42.50860 | -70.93534 | 2826 ft | 180 kts | 204° |
| 2026-05-06 14:08 | 42.49713 | -70.94091 | 2597 ft | 168 kts | 204° |
| 2026-05-06 14:08 | 42.48632 | -70.94616 | 2388 ft | 164 kts | 205° |
| 2026-05-06 14:08 | 42.47563 | -70.95137 | 2159 ft | 163 kts | 204° |
| 2026-05-06 14:09 | 42.46505 | -70.95651 | 1945 ft | 161 kts | 204° |
| 2026-05-06 14:09 | 42.45447 | -70.96165 | 1725 ft | 158 kts | 203° |
| 2026-05-06 14:09 | 42.44499 | -70.96623 | 1533 ft | 131 kts | 203° |
| 2026-05-06 14:09 | 42.43683 | -70.97019 | 1363 ft | 120 kts | 201° |
| 2026-05-06 14:10 | 42.42913 | -70.97394 | 1202 ft | 115 kts | 200° |
| 2026-05-06 14:10 | 42.42158 | -70.97761 | 1049 ft | 117 kts | 201° |
| 2026-05-06 14:10 | 42.41368 | -70.98145 | 896 ft | 120 kts | 201° |
| 2026-05-06 14:10 | 42.40575 | -70.98541 | 698 ft | 123 kts | 199° |
| 2026-05-06 14:11 | 42.39748 | -70.98931 | 567 ft | 126 kts | 200° |
| 2026-05-06 14:11 | 42.38922 | -70.99326 | 380 ft | 127 kts | 198° |
| 2026-05-06 14:11 | 42.38099 | -70.99725 | 217 ft | 126 kts | 198° |
| 2026-05-06 14:11 | 42.37275 | -71.00127 | 52 ft | 126 kts | 197° |
| 2026-05-06 14:12 | 42.36562 | -71.00466 | 27 ft | 86 kts | 200° |
| 2026-05-06 14:12 | 42.36164 | -71.00662 | 23 ft | 36 kts | 200° |
| 2026-05-06 14:12 | 42.36035 | -71.00772 | 22 ft | 21 kts | 220° |
| 2026-05-06 14:12 | 42.35924 | -71.00894 | 21 ft | 20 kts | 217° |
| 2026-05-06 14:13 | 42.35914 | -71.00904 | 20 ft | 0 kts | 217° |